Time;durP1;ratioP1;P1;durP2;ratioP2;P2;SDS_P1;SDS_P2;PMS_P1;PMS_P2;Temp;Humidity;BMP_temperature;BMP_pressure;BME280_temperature;BME280_humidity;BME280_pressure;Samples;Min_cycle;Max_cycle;Signal;HPM_P1;HPM_P2
2021/04/27 00:01:24;;;;;;;1999.90;999.90;;;;;;;4.78;56.16;101295.38;15253522;29;20048;-62
2021/04/27 00:08:57;;;;;;;1999.90;999.90;;;;;;;4.77;55.86;101290.16;15221856;29;20600;-61
2021/04/27 00:16:28;;;;;;;1999.90;999.90;;;;;;;4.61;56.74;101287.44;15255221;29;20563;-60
2021/04/27 00:24:01;;;;;;;1999.90;999.90;;;;;;;4.55;57.07;101279.41;15257915;29;20052;-61
2021/04/27 00:31:33;;;;;;;1999.90;999.90;;;;;;;4.51;56.75;101290.22;15265622;29;20048;-62
2021/04/27 00:39:06;;;;;;;1999.90;999.90;;;;;;;4.28;58.22;101282.50;15265041;29;20044;-61
2021/04/27 00:46:38;;;;;;;1999.90;999.90;;;;;;;4.14;58.97;101278.63;15263641;29;20100;-62
2021/04/27 00:54:10;;;;;;;1999.90;999.90;;;;;;;3.94;59.10;101274.75;15263686;29;20058;-58
2021/04/27 01:01:42;;;;;;;1999.90;999.90;;;;;;;3.93;58.66;101263.97;15263707;29;20623;-60
2021/04/27 01:09:20;;;;;;;1999.90;999.90;;;;;;;3.92;58.31;101267.84;15203205;29;20087;-60
2021/04/27 01:16:56;;;;;;;1999.90;999.90;;;;;;;3.88;58.32;101258.47;15229382;29;20048;-61
2021/04/27 01:24:45;;;;;;;1999.90;999.90;;;;;;;3.74;58.69;101253.47;15246455;29;20129;-61
2021/04/27 01:32:20;;;;;;;1999.90;999.90;;;;;;;3.40;60.52;101250.38;15260664;29;20044;-61
2021/04/27 01:39:53;;;;;;;1999.90;999.90;;;;;;;3.08;61.77;101249.72;15243132;29;20143;-60
2021/04/27 01:47:26;;;;;;;1999.90;999.90;;;;;;;3.63;60.41;101239.94;15259695;29;20079;-62
2021/04/27 01:54:58;;;;;;;;;;;;;;;3.83;59.27;101237.19;15248242;29;20413;-62
2021/04/27 02:02:32;;;;;;;1999.90;999.90;;;;;;;3.61;60.14;101231.09;15259008;29;20416;-62
2021/04/27 02:10:27;;;;;;;1999.90;999.90;;;;;;;3.42;60.29;101244.59;15258707;29;20059;-62
2021/04/27 02:18:04;;;;;;;1999.90;999.90;;;;;;;3.34;60.19;101236.88;15257967;29;20071;-62
2021/04/27 02:25:39;;;;;;;1999.90;999.90;;;;;;;3.28;60.83;101232.44;15259040;29;20059;-61
2021/04/27 02:33:13;;;;;;;1999.90;999.90;;;;;;;3.11;61.01;101227.94;15257507;29;20123;-59
2021/04/27 02:40:45;;;;;;;1999.90;999.90;;;;;;;3.01;60.71;101207.78;15258029;29;20055;-61
2021/04/27 02:48:20;;;;;;;1999.90;999.90;;;;;;;3.39;59.94;101220.31;15254628;29;20323;-62
2021/04/27 02:55:54;;;;;;;1999.90;999.90;;;;;;;3.38;59.91;101211.22;15310638;23;20496;-56
2021/04/27 03:03:27;;;;;;;1999.90;999.90;;;;;;;3.32;59.90;101211.47;15275593;29;20523;-54
2021/04/27 03:10:59;;;;;;;1999.90;999.90;;;;;;;3.30;59.41;101214.50;15296984;29;20138;-57
2021/04/27 03:18:32;;;;;;;1999.90;999.90;;;;;;;3.16;59.59;101208.69;15309134;29;20457;-55
2021/04/27 03:26:08;;;;;;;1999.90;999.90;;;;;;;2.97;60.25;101204.75;15291978;29;20035;-54
2021/04/27 03:33:50;;;;;;;1999.90;999.90;;;;;;;3.06;59.54;101208.66;15291663;29;20134;-51
2021/04/27 03:41:22;;;;;;;1999.90;999.90;;;;;;;3.12;59.21;101192.94;15275819;29;20055;-54
2021/04/27 03:48:55;;;;;;;1999.90;999.90;;;;;;;2.87;59.88;101204.72;15290186;29;20114;-60
2021/04/27 03:56:27;;;;;;;1999.90;999.90;;;;;;;2.88;59.38;101198.09;15233850;29;20059;-56
2021/04/27 04:04:01;;;;;;;1999.90;999.90;;;;;;;2.96;58.83;101205.03;15227129;29;20536;-54
2021/04/27 04:11:33;;;;;;;1999.90;999.90;;;;;;;2.91;57.51;101211.34;15241717;29;20131;-52
2021/04/27 04:19:08;;;;;;;1999.90;999.90;;;;;;;3.09;57.70;101213.59;15258666;29;20104;-54
2021/04/27 04:26:50;;;;;;;1999.90;999.90;;;;;;;2.95;57.97;101223.50;15204201;29;20107;-52
2021/04/27 04:34:41;;;;;;;1999.90;999.90;;;;;;;3.50;56.73;101219.22;15258518;29;20513;-52
2021/04/27 04:42:31;;;;;;;1999.90;999.90;;;;;;;3.72;54.89;101225.31;15258027;29;20051;-58
2021/04/27 04:50:26;;;;;;;1999.90;999.90;;;;;;;3.73;54.78;101220.63;15263463;29;20106;-57
2021/04/27 04:58:17;;;;;;;1999.90;999.90;;;;;;;4.07;54.66;101226.44;15315422;29;20150;-57
2021/04/27 05:06:16;;;;;;;1999.90;999.90;;;;;;;4.35;53.04;101222.25;15297645;29;20083;-55
2021/04/27 05:14:06;;;;;;;1999.90;999.90;;;;;;;4.85;52.91;101228.75;15315024;29;20118;-60
2021/04/27 05:21:40;;;;;;;1999.90;999.90;;;;;;;5.59;51.36;101222.25;15322712;29;20090;-57
2021/04/27 05:29:13;;;;;;;1999.90;999.90;;;;;;;6.22;49.28;101227.03;15315177;29;20134;-56
2021/04/27 05:36:46;;;;;;;1999.90;999.90;;;;;;;6.49;49.84;101230.09;15314637;29;20446;-55
2021/04/27 05:44:20;;;;;;;1999.90;999.90;;;;;;;7.80;48.08;101235.03;15311219;29;20048;-52
2021/04/27 05:51:55;;;;;;;1999.90;999.90;;;;;;;8.50;45.67;101233.34;15310502;29;20048;-55
2021/04/27 05:59:31;;;;;;;1999.90;999.90;;;;;;;9.36;43.68;101233.53;15311171;29;20130;-58
2021/04/27 06:07:07;;;;;;;1999.90;999.90;;;;;;;8.92;41.54;101232.22;15278813;29;20052;-58
2021/04/27 06:14:44;;;;;;;1999.90;999.90;;;;;;;9.42;40.67;101237.84;15293211;29;20067;-53
2021/04/27 06:22:18;;;;;;;1999.90;999.90;;;;;;;9.52;39.49;101232.88;15310429;29;20047;-52
2021/04/27 06:30:10;;;;;;;1999.90;999.90;;;;;;;10.62;39.57;101237.94;15280919;29;20123;-53
2021/04/27 06:37:54;;;;;;;1999.90;999.90;;;;;;;10.82;38.25;101238.53;15279741;29;20052;-57
2021/04/27 06:45:26;;;;;;;1999.90;999.90;;;;;;;11.19;37.13;101251.97;15293031;29;20327;-53
2021/04/27 06:52:59;;;;;;;1999.90;999.90;;;;;;;11.76;36.29;101253.88;15310139;29;20257;-53
2021/04/27 07:00:35;;;;;;;1999.90;999.90;;;;;;;12.35;34.61;101243.84;15292982;29;20413;-53
2021/04/27 07:08:08;;;;;;;1999.90;999.90;;;;;;;11.70;34.91;101241.22;15291794;29;20040;-54
2021/04/27 07:15:39;;;;;;;1999.90;999.90;;;;;;;12.76;33.79;101250.81;15308875;29;20052;-53
2021/04/27 07:23:12;;;;;;;1999.90;999.90;;;;;;;13.22;35.04;101247.16;15308643;29;20508;-54
2021/04/27 07:30:44;;;;;;;1999.90;999.90;;;;;;;12.16;35.84;101236.97;15291296;29;20052;-53
2021/04/27 07:38:16;;;;;;;1999.90;999.90;;;;;;;13.67;32.95;101237.34;15307914;29;20086;-57
2021/04/27 07:45:47;;;;;;;1999.90;999.90;;;;;;;13.70;34.23;101237.47;15290165;29;20048;-53
2021/04/27 07:53:20;;;;;;;1999.90;999.90;;;;;;;15.06;31.68;101242.34;15274069;29;20051;-53
2021/04/27 08:00:51;;;;;;;1999.90;999.90;;;;;;;14.67;31.25;101236.22;15290836;29;20446;-55
2021/04/27 08:08:24;;;;;;;1999.90;999.90;;;;;;;14.98;28.34;101236.50;15307622;29;20067;-54
2021/04/27 08:15:56;;;;;;;1999.90;999.90;;;;;;;15.38;27.91;101232.97;15290108;29;20052;-54
2021/04/27 08:23:28;;;;;;;1999.90;999.90;;;;;;;13.68;29.43;101227.75;15307064;29;20110;-54
2021/04/27 08:31:00;;;;;;;1999.90;999.90;;;;;;;15.57;26.88;101227.56;15307366;29;20228;-56
2021/04/27 08:38:33;;;;;;;1999.90;999.90;;;;;;;16.31;26.51;101232.97;15306589;29;20122;-57
2021/04/27 08:46:04;;;;;;;1999.90;999.90;;;;;;;16.22;28.07;101226.66;15295239;29;20119;-57
2021/04/27 08:53:37;;;;;;;1999.90;999.90;;;;;;;16.08;31.07;101213.00;15395491;23;20059;-64
2021/04/27 09:01:09;;;;;;;1999.90;999.90;;;;;;;17.19;25.68;101213.94;15441851;28;20563;-64
2021/04/27 09:08:41;;;;;;;1999.90;999.90;;;;;;;16.07;27.72;101200.94;15447372;28;20074;-63
2021/04/27 09:16:13;;;;;;;1999.90;999.90;;;;;;;15.60;26.92;101197.91;15485071;28;20046;-63
2021/04/27 09:23:46;;;;;;;1999.90;999.90;;;;;;;17.27;27.52;101191.19;15500854;28;20050;-63
2021/04/27 09:31:26;;;;;;;1999.90;999.90;;;;;;;17.98;25.25;101183.50;15483477;28;20073;-66
2021/04/27 09:38:58;;;;;;;1999.90;999.90;;;;;;;17.22;25.03;101166.09;15482977;28;20073;-64
2021/04/27 09:46:30;;;;;;;1999.90;999.90;;;;;;;17.11;25.32;101170.69;15482465;28;20126;-63
2021/04/27 09:54:06;;;;;;;1999.90;999.90;;;;;;;17.63;26.26;101160.16;15480960;28;20050;-62
2021/04/27 10:01:38;;;;;;;1999.90;999.90;;;;;;;17.59;24.49;101160.06;15497841;28;20046;-65
2021/04/27 10:09:11;;;;;;;1999.90;999.90;;;;;;;18.58;23.71;101155.59;15481332;28;20447;-65
2021/04/27 10:16:43;;;;;;;1999.90;999.90;;;;;;;17.61;24.18;101137.94;15480091;28;20494;-63
2021/04/27 10:24:19;;;;;;;1999.90;999.90;;;;;;;19.02;22.35;101138.16;15496928;28;20112;-64
2021/04/27 10:32:19;;;;;;;1999.90;999.90;;;;;;;18.86;22.14;101126.19;15463394;28;20138;-62
2021/04/27 10:39:52;;;;;;;1999.90;999.90;;;;;;;17.76;23.23;101116.50;15479207;28;20046;-62
2021/04/27 10:47:24;;;;;;;1999.90;999.90;;;;;;;17.45;22.42;101117.44;15426748;28;20050;-63
2021/04/27 10:55:26;;;;;;;1999.90;999.90;;;;;;;19.26;23.61;101095.28;15418267;28;20047;-65
2021/04/27 11:03:11;;;;;;;1999.90;999.90;;;;;;;20.42;18.95;101091.38;15435003;28;20047;-62
2021/04/27 11:10:47;;;;;;;1999.90;999.90;;;;;;;19.85;20.75;101076.63;15418174;28;20041;-64
2021/04/27 11:18:20;;;;;;;1999.90;999.90;;;;;;;18.94;21.20;101071.38;15417806;28;20157;-63
2021/04/27 11:25:52;;;;;;;1999.90;999.90;;;;;;;20.36;20.07;101055.28;15401006;28;20082;-64
2021/04/27 11:33:25;;;;;;;1999.90;999.90;;;;;;;20.68;20.73;101053.53;15401017;28;20047;-62
2021/04/27 11:40:59;;;;;;;1999.90;999.90;;;;;;;18.95;20.35;101034.22;15433364;28;20046;-64
2021/04/27 11:48:30;;;;;;;1999.90;999.90;;;;;;;18.22;19.86;101037.50;15433190;28;20499;-65
2021/04/27 11:56:03;;;;;;;1999.90;999.90;;;;;;;19.62;20.36;101027.03;15415551;28;20047;-64
2021/04/27 12:03:35;;;;;;;1999.90;999.90;;;;;;;20.60;19.27;101025.53;15416051;28;20058;-63
2021/04/27 12:11:12;;;;;;;1999.90;999.90;;;;;;;19.18;20.02;101013.53;15446056;28;20637;-62
2021/04/27 12:18:49;;;;;;;1999.90;999.90;;;;;;;22.08;19.67;100999.00;15424679;28;20039;-63
2021/04/27 12:26:22;;;;;;;1999.90;999.90;;;;;;;20.54;19.76;101004.44;15428659;28;20046;-63
2021/04/27 12:33:55;;;;;;;1999.90;999.90;;;;;;;21.36;19.05;100994.34;15445314;28;20174;-65
2021/04/27 12:41:39;;;;;;;1999.90;999.90;;;;;;;22.72;17.63;100976.22;15445601;28;20073;-66
2021/04/27 12:49:11;;;;;;;1999.90;999.90;;;;;;;23.84;17.58;100980.19;15428237;28;20117;-66
2021/04/27 12:56:44;;;;;;;1999.90;999.90;;;;;;;22.86;17.59;100971.72;15412425;28;20046;-62
2021/04/27 13:04:18;;;;;;;1999.90;999.90;;;;;;;24.86;15.64;100965.44;15441537;28;20050;-63
2021/04/27 13:11:59;;;;;;;1999.90;999.90;;;;;;;25.32;15.88;100954.28;15442295;28;20174;-62
2021/04/27 13:19:45;;;;;;;1999.90;999.90;;;;;;;26.07;15.51;100953.19;15407907;28;20059;-62
2021/04/27 13:27:24;;;;;;;1999.90;999.90;;;;;;;24.31;15.88;100930.16;15440036;28;20412;-64
2021/04/27 13:35:14;;;;;;;1999.90;999.90;;;;;;;23.13;15.99;100915.09;15422951;28;20420;-64
2021/04/27 13:42:51;;;;;;;1999.90;999.90;;;;;;;17.63;20.89;100892.91;15440447;28;20117;-67
2021/04/27 13:50:24;;;;;;;1999.90;999.90;;;;;;;15.56;21.59;100884.78;15422790;28;20046;-62
2021/04/27 13:57:56;;;;;;;1999.90;999.90;;;;;;;15.62;23.03;100876.91;15421978;28;20050;-63
2021/04/27 14:05:28;;;;;;;1999.90;999.90;;;;;;;16.21;22.23;100854.22;15420929;28;20133;-62
2021/04/27 14:13:00;;;;;;;1999.90;999.90;;;;;;;15.53;22.84;100857.38;15420274;28;20043;-65
2021/04/27 14:20:36;;;;;;;1999.90;999.90;;;;;;;15.77;23.40;100845.97;15419813;28;20121;-63
2021/04/27 14:28:10;;;;;;;1999.90;999.90;;;;;;;15.41;22.65;100832.16;15419094;28;20039;-64
2021/04/27 14:35:42;;;;;;;1999.90;999.90;;;;;;;15.34;24.49;100826.38;15420058;28;20077;-62
2021/04/27 14:43:15;;;;;;;1999.90;999.90;;;;;;;15.29;24.49;100821.81;15435466;28;20499;-63
2021/04/27 14:50:46;;;;;;;1999.90;999.90;;;;;;;15.62;23.06;100810.22;15411545;23;20415;-56
2021/04/27 14:58:19;;;;;;;1999.90;999.90;;;;;;;15.96;23.62;100800.19;15353012;29;20142;-54
2021/04/27 15:05:50;;;;;;;1999.90;999.90;;;;;;;15.12;24.96;100788.47;15381312;28;20130;-56
2021/04/27 15:13:23;;;;;;;1999.90;999.90;;;;;;;15.10;23.98;100776.75;15403914;28;20051;-54
2021/04/27 15:20:54;;;;;;;1999.90;999.90;;;;;;;14.96;24.66;100780.81;15429143;28;20411;-59
2021/04/27 15:28:28;;;;;;;1999.90;999.90;;;;;;;15.64;25.27;100779.75;15428379;28;20045;-54
2021/04/27 15:35:59;;;;;;;1999.90;999.90;;;;;;;15.45;25.19;100777.66;15427859;28;20154;-56
2021/04/27 15:43:31;;;;;;;1999.90;999.90;;;;;;;15.47;25.38;100769.66;15411346;28;20139;-56
2021/04/27 15:51:03;;;;;;;1999.90;999.90;;;;;;;15.33;25.36;100752.44;15340928;28;20109;-55
2021/04/27 15:58:36;;;;;;;1999.90;999.90;;;;;;;14.92;26.01;100748.19;15365706;28;20275;-58
2021/04/27 16:06:07;;;;;;;1999.90;999.90;;;;;;;14.78;26.28;100745.81;15332816;29;20122;-61
2021/04/27 16:13:40;;;;;;;1999.90;999.90;;;;;;;15.12;26.65;100737.88;15319839;29;20063;-55
2021/04/27 16:21:11;;;;;;;1999.90;999.90;;;;;;;14.78;26.61;100736.56;15307854;29;20039;-58
2021/04/27 16:28:43;;;;;;;1999.90;999.90;;;;;;;14.53;26.08;100731.09;15351570;29;20489;-57
2021/04/27 16:36:15;;;;;;;1999.90;999.90;;;;;;;14.79;26.45;100730.59;15339675;29;20054;-56
2021/04/27 16:43:47;;;;;;;1999.90;999.90;;;;;;;14.30;26.82;100718.81;15301239;29;20055;-56
2021/04/27 16:51:19;;;;;;;1999.90;999.90;;;;;;;14.65;26.96;100717.00;15359832;29;20055;-59
2021/04/27 16:58:51;;;;;;;1999.90;999.90;;;;;;;14.58;26.72;100713.97;15344453;29;20076;-58
2021/04/27 17:06:27;;;;;;;1999.90;999.90;;;;;;;14.27;26.87;100708.28;15319420;28;20047;-57
2021/04/27 17:14:00;;;;;;;1999.90;999.90;;;;;;;14.26;27.24;100710.28;15355553;28;20055;-58
2021/04/27 17:21:33;;;;;;;1999.90;999.90;;;;;;;14.18;27.32;100704.84;15331419;29;20047;-58
2021/04/27 17:29:05;;;;;;;1999.90;999.90;;;;;;;14.14;27.47;100701.91;15317752;29;20216;-62
2021/04/27 17:36:37;;;;;;;1999.90;999.90;;;;;;;14.01;27.74;100703.16;15298028;29;20047;-56
2021/04/27 17:44:10;;;;;;;1999.90;999.90;;;;;;;13.88;28.40;100712.78;15354645;29;20044;-61
2021/04/27 17:51:42;;;;;;;1999.90;999.90;;;;;;;13.78;28.41;100705.69;15340443;28;20102;-57
2021/04/27 17:59:14;;;;;;;1999.90;999.90;;;;;;;13.58;28.71;100705.50;15359214;28;20373;-61
2021/04/27 18:06:48;;;;;;;1999.90;999.90;;;;;;;13.57;29.21;100703.03;15345606;29;20150;-60
2021/04/27 18:14:21;;;;;;;1999.90;999.90;;;;;;;13.32;29.86;100707.84;15320043;29;20472;-62
2021/04/27 18:21:53;;;;;;;1999.90;999.90;;;;;;;13.01;30.88;100711.22;15331381;28;20038;-62
2021/04/27 18:29:25;;;;;;;1999.90;999.90;;;;;;;12.87;31.46;100710.75;15345335;29;20079;-59
2021/04/27 18:36:57;;;;;;;1999.90;999.90;;;;;;;12.68;33.19;100709.31;15386486;28;20058;-59
2021/04/27 18:44:29;;;;;;;1999.90;999.90;;;;;;;12.16;33.30;100722.22;15320487;28;20350;-58
2021/04/27 18:52:01;;;;;;;1999.90;999.90;;;;;;;12.10;32.72;100714.06;15309720;29;20540;-59
2021/04/27 18:59:33;;;;;;;1999.90;999.90;;;;;;;11.82;32.83;100724.16;15328179;29;20466;-60
2021/04/27 19:07:05;;;;;;;1999.90;999.90;;;;;;;11.73;33.40;100728.97;15361943;29;20455;-56
2021/04/27 19:14:37;;;;;;;1999.90;999.90;;;;;;;11.49;35.19;100722.09;15364224;28;20062;-56
2021/04/27 19:22:10;;;;;;;1999.90;999.90;;;;;;;11.19;34.26;100726.03;15394716;28;20047;-56
2021/04/27 19:29:42;;;;;;;1999.90;999.90;;;;;;;10.95;34.62;100735.88;15348131;28;20077;-61
2021/04/27 19:37:14;;;;;;;1999.90;999.90;;;;;;;10.97;35.28;100736.34;15391038;28;20039;-54
2021/04/27 19:44:46;;;;;;;1999.90;999.90;;;;;;;10.74;36.42;100737.75;15368763;28;20079;-59
2021/04/27 19:52:18;;;;;;;1999.90;999.90;;;;;;;10.56;37.06;100734.19;15350381;28;20048;-56
2021/04/27 19:59:50;;;;;;;1999.90;999.90;;;;;;;10.31;37.39;100732.25;15350008;29;20078;-57
2021/04/27 20:07:22;;;;;;;1999.90;999.90;;;;;;;10.26;38.10;100733.25;15333491;29;20075;-61
2021/04/27 20:14:54;;;;;;;1999.90;999.90;;;;;;;10.13;38.63;100725.88;15349125;28;20121;-60
2021/04/27 20:22:26;;;;;;;1999.90;999.90;;;;;;;9.94;38.63;100731.78;15349350;28;20130;-62
2021/04/27 20:29:58;;;;;;;1999.90;999.90;;;;;;;9.92;39.14;100733.28;15350240;28;20138;-57
2021/04/27 20:37:30;;;;;;;1999.90;999.90;;;;;;;9.81;39.22;100739.19;15322157;29;20106;-58
2021/04/27 20:45:04;;;;;;;1999.90;999.90;;;;;;;9.51;39.53;100735.38;15343225;29;20051;-59
2021/04/27 20:52:36;;;;;;;1999.90;999.90;;;;;;;9.39;40.09;100731.59;15355496;23;20399;-59
2021/04/27 21:00:12;;;;;;;1999.90;999.90;;;;;;;9.26;40.43;100722.19;15435226;28;20051;-59
2021/04/27 21:07:44;;;;;;;1999.90;999.90;;;;;;;9.28;40.68;100728.28;15406848;28;20039;-58
2021/04/27 21:15:19;;;;;;;1999.90;999.90;;;;;;;9.24;40.56;100728.09;15364835;28;20465;-61
2021/04/27 21:22:50;;;;;;;1999.90;999.90;;;;;;;9.07;40.81;100725.28;15376374;28;20207;-59
2021/04/27 21:30:24;;;;;;;1999.90;999.90;;;;;;;9.03;41.39;100723.44;15378738;28;20064;-59
2021/04/27 21:37:55;;;;;;;1999.90;999.90;;;;;;;8.85;41.48;100728.94;15390889;28;20055;-61
2021/04/27 21:45:28;;;;;;;1999.90;999.90;;;;;;;8.96;41.05;100726.69;15430979;28;20496;-60
2021/04/27 21:52:59;;;;;;;1999.90;999.90;;;;;;;8.66;42.40;100723.66;15370016;28;20113;-61
2021/04/27 22:00:33;;;;;;;1999.90;999.90;;;;;;;8.74;41.35;100732.34;15410341;28;20077;-63
2021/04/27 22:08:08;;;;;;;1999.90;999.90;;;;;;;8.58;41.78;100718.84;15376833;28;20042;-59
2021/04/27 22:15:41;;;;;;;1999.90;999.90;;;;;;;8.44;42.12;100717.28;15372611;28;20054;-61
2021/04/27 22:23:14;;;;;;;1999.90;999.90;;;;;;;8.34;42.20;100721.16;15374509;28;20055;-60
2021/04/27 22:30:47;;;;;;;1999.90;999.90;;;;;;;8.40;42.04;100722.66;15384768;28;20058;-61
2021/04/27 22:38:19;;;;;;;1999.90;999.90;;;;;;;8.27;42.29;100712.44;15374545;28;20061;-62
2021/04/27 22:45:53;;;;;;;1999.90;999.90;;;;;;;8.37;42.21;100717.75;15409585;28;20051;-59
2021/04/27 22:53:24;;;;;;;;;;;;;;;8.18;42.91;100714.34;15387552;28;20430;-59
2021/04/27 23:00:56;;;;;;;1999.90;999.90;;;;;;;7.96;43.34;100712.38;15434744;28;19941;-60
2021/04/27 23:08:28;;;;;;;1999.90;999.90;;;;;;;7.83;43.44;100705.75;15392789;28;20524;-61
2021/04/27 23:16:00;;;;;;;1999.90;999.90;;;;;;;7.69;43.25;100700.22;15385814;28;20431;-61
2021/04/27 23:23:32;;;;;;;1999.90;999.90;;;;;;;7.69;43.35;100691.06;15387446;28;20051;-60
2021/04/27 23:31:04;;;;;;;1999.90;999.90;;;;;;;7.54;43.55;100689.50;15368207;28;20048;-64
2021/04/27 23:38:36;;;;;;;1999.90;999.90;;;;;;;7.62;43.15;100685.16;15385701;28;20058;-61
2021/04/27 23:46:09;;;;;;;1999.90;999.90;;;;;;;7.62;43.55;100677.66;15383462;28;20503;-60
2021/04/27 23:53:40;;;;;;;1999.90;999.90;;;;;;;7.57;43.35;100666.66;15354821;28;20051;-59
